createdAt,value
2022-12-25T00:00:44.040Z,100286.80
2022-12-25T00:06:14.457Z,100285.80
2022-12-25T00:11:24.876Z,100293.80
2022-12-25T00:16:34.560Z,100291.00
2022-12-25T00:21:44.078Z,100288.40
2022-12-25T00:26:53.826Z,100297.40
2022-12-25T00:32:03.641Z,100303.20
2022-12-25T00:37:13.181Z,100298.40
2022-12-25T00:42:24.158Z,100302.00
2022-12-25T00:47:34.899Z,100313.80
2022-12-25T00:52:44.572Z,100319.60
2022-12-25T00:57:54.495Z,100324.40
2022-12-25T01:03:04.116Z,100340.40
2022-12-25T01:08:14.072Z,100355.00
2022-12-25T01:13:23.871Z,100360.40
2022-12-25T01:18:33.521Z,100367.20
2022-12-25T01:23:43.712Z,100372.60
2022-12-25T01:28:54.428Z,100368.60
2022-12-25T01:34:04.089Z,100374.40
2022-12-25T01:39:14.058Z,100379.80
2022-12-25T01:45:17.954Z,100376.80
2022-12-25T01:50:28.925Z,100380.80
2022-12-25T01:55:40.010Z,100370.00
2022-12-25T02:00:49.791Z,100365.20
2022-12-25T02:06:00.515Z,100359.20
2022-12-25T02:11:32.259Z,100361.00
2022-12-25T02:16:57.292Z,100361.20
2022-12-25T02:22:17.850Z,100374.80
2022-12-25T02:27:57.650Z,100384.20
2022-12-25T02:33:33.589Z,100399.60
2022-12-25T02:38:59.964Z,100396.00
2022-12-25T02:44:35.308Z,100388.60
2022-12-25T02:50:05.656Z,100395.40
2022-12-25T02:55:38.870Z,100392.60
2022-12-25T03:01:13.637Z,100392.40
2022-12-25T03:06:46.972Z,100393.40
2022-12-25T03:12:04.120Z,100400.40
2022-12-25T03:17:14.013Z,100401.40
2022-12-25T03:22:47.035Z,100407.00
2022-12-25T03:28:01.096Z,100401.60
2022-12-25T03:33:44.407Z,100405.20
2022-12-25T03:39:20.437Z,100405.00
2022-12-25T03:44:58.274Z,100407.20
2022-12-25T03:50:33.720Z,100404.60
2022-12-25T03:56:02.525Z,100403.60
2022-12-25T04:01:30.794Z,100408.60
2022-12-25T04:06:58.185Z,100413.40
2022-12-25T04:12:26.195Z,100411.20
2022-12-25T04:17:53.565Z,100408.00
2022-12-25T04:23:20.944Z,100403.20
2022-12-25T04:28:48.111Z,100413.20
2022-12-25T04:34:15.509Z,100422.80
2022-12-25T04:39:25.379Z,100433.40
2022-12-25T04:44:35.206Z,100427.00
2022-12-25T04:49:44.803Z,100419.40
2022-12-25T04:54:54.531Z,100426.80
2022-12-25T05:00:04.361Z,100414.60
2022-12-25T05:05:14.429Z,100422.60
2022-12-25T05:10:24.602Z,100425.40
2022-12-25T05:15:34.350Z,100431.80
2022-12-25T05:20:44.194Z,100429.60
2022-12-25T05:25:54.033Z,100435.00
2022-12-25T05:31:03.827Z,100435.60
2022-12-25T05:36:16.237Z,100447.80
2022-12-25T05:41:29.095Z,100459.80
2022-12-25T05:46:43.861Z,100460.60
2022-12-25T05:51:53.723Z,100460.40
2022-12-25T05:57:03.442Z,100468.60
2022-12-25T06:02:13.204Z,100470.00
2022-12-25T06:07:23.046Z,100468.00
2022-12-25T06:12:32.603Z,100476.80
2022-12-25T06:17:42.293Z,100483.00
2022-12-25T06:22:51.989Z,100482.60
2022-12-25T06:28:01.945Z,100488.00
2022-12-25T06:33:11.561Z,100501.40
2022-12-25T06:38:21.199Z,100511.80
2022-12-25T06:43:30.736Z,100515.40
2022-12-25T06:48:48.260Z,100531.40
2022-12-25T06:53:58.921Z,100531.80
2022-12-25T06:59:11.770Z,100548.80
2022-12-25T07:04:28.410Z,100571.60
2022-12-25T07:09:39.430Z,100580.20
2022-12-25T07:14:50.353Z,100574.00
2022-12-25T07:19:59.989Z,100576.60
2022-12-25T07:25:11.247Z,100594.00
2022-12-25T07:30:21.408Z,100598.00
2022-12-25T07:35:31.075Z,100608.40
2022-12-25T07:40:41.414Z,100613.80
2022-12-25T07:45:55.319Z,100622.60
2022-12-25T07:51:09.556Z,100636.60
2022-12-25T07:56:21.791Z,100632.20
2022-12-25T08:01:32.190Z,100638.20
2022-12-25T08:06:42.043Z,100642.40
2022-12-25T08:11:52.114Z,100643.80
2022-12-25T08:17:02.166Z,100650.20
2022-12-25T08:22:12.186Z,100659.20
2022-12-25T08:27:21.733Z,100664.60
2022-12-25T08:32:33.255Z,100670.80
2022-12-25T08:37:42.987Z,100668.40
2022-12-25T08:42:52.840Z,100675.40
2022-12-25T08:48:02.993Z,100677.40
2022-12-25T08:53:12.834Z,100684.40
2022-12-25T08:58:22.462Z,100697.20
2022-12-25T09:03:33.606Z,100686.40
2022-12-25T09:08:49.044Z,100687.20
2022-12-25T09:13:59.681Z,100688.40
2022-12-25T09:19:09.778Z,100696.00
2022-12-25T09:24:20.908Z,100689.20
2022-12-25T09:29:30.592Z,100702.80
2022-12-25T09:34:40.277Z,100707.40
2022-12-25T09:39:50.104Z,100701.60
2022-12-25T09:45:06.139Z,100702.80
2022-12-25T09:50:22.047Z,100708.00
2022-12-25T09:55:40.338Z,100710.80
2022-12-25T10:00:57.954Z,100718.40
2022-12-25T10:06:19.125Z,100715.80
2022-12-25T10:11:51.303Z,100722.80
2022-12-25T10:17:26.455Z,100717.00
2022-12-25T10:22:42.491Z,100708.40
2022-12-25T10:27:58.712Z,100720.40
2022-12-25T10:33:13.582Z,100729.80
2022-12-25T10:38:26.567Z,100729.80
2022-12-25T10:43:42.644Z,100711.80
2022-12-25T10:48:58.068Z,100701.00
2022-12-25T10:54:24.169Z,100705.60
2022-12-25T10:59:44.459Z,100703.20
2022-12-25T11:05:01.706Z,100705.60
2022-12-25T11:10:25.250Z,100701.40
2022-12-25T11:15:44.627Z,100695.00
2022-12-25T11:21:01.275Z,100696.40
2022-12-25T11:26:15.464Z,100702.60
2022-12-25T11:31:33.323Z,100709.40
2022-12-25T11:36:51.183Z,100718.00
2022-12-25T11:42:08.166Z,100722.60
2022-12-25T11:47:26.358Z,100725.60
2022-12-25T11:52:41.433Z,100730.20
2022-12-25T11:57:57.039Z,100729.60
2022-12-25T12:03:15.321Z,100735.40
2022-12-25T12:08:25.095Z,100738.20
2022-12-25T12:13:55.738Z,100741.40
2022-12-25T12:19:26.185Z,100742.80
2022-12-25T12:24:40.745Z,100738.40
2022-12-25T12:29:56.315Z,100729.60
2022-12-25T12:35:19.703Z,100714.20
2022-12-25T12:40:43.927Z,100705.00
2022-12-25T12:46:01.829Z,100715.20
2022-12-25T12:51:15.149Z,100720.40
2022-12-25T12:56:26.154Z,100718.40
2022-12-25T13:01:53.539Z,100714.40
2022-12-25T13:07:20.996Z,100712.60
2022-12-25T13:12:31.731Z,100726.40
2022-12-25T13:17:44.587Z,100725.80
2022-12-25T13:22:54.414Z,100733.00
2022-12-25T13:28:05.145Z,100738.00
2022-12-25T13:33:22.587Z,100732.00
2022-12-25T13:38:34.435Z,100728.80
2022-12-25T13:43:46.518Z,100730.80
2022-12-25T13:49:01.831Z,100730.20
2022-12-25T13:54:14.448Z,100732.40
2022-12-25T13:59:26.989Z,100734.20
2022-12-25T14:04:48.467Z,100732.40
2022-12-25T14:10:03.932Z,100737.60
2022-12-25T14:15:24.024Z,100730.00
2022-12-25T14:20:39.307Z,100726.80
2022-12-25T14:25:50.315Z,100724.00
2022-12-25T14:31:00.922Z,100732.80
2022-12-25T14:36:15.048Z,100744.00
2022-12-25T14:41:38.282Z,100758.20
2022-12-25T14:46:48.087Z,100762.80
2022-12-25T14:51:58.874Z,100777.40
2022-12-25T14:57:08.843Z,100772.20
2022-12-25T15:02:22.372Z,100782.40
2022-12-25T15:07:34.928Z,100776.80
2022-12-25T15:12:44.502Z,100770.80
2022-12-25T15:17:55.870Z,100767.40
2022-12-25T15:23:22.571Z,100754.60
2022-12-25T15:28:32.179Z,100756.40
2022-12-25T15:33:44.241Z,100768.60
2022-12-25T15:38:55.228Z,100756.60
2022-12-25T15:44:06.168Z,100745.00
2022-12-25T15:49:17.148Z,100725.20
2022-12-25T15:54:27.035Z,100710.40
2022-12-25T16:00:17.058Z,100714.60
2022-12-25T16:05:27.945Z,100710.80
2022-12-25T16:10:39.132Z,100736.20
2022-12-25T16:15:50.507Z,100755.40
2022-12-25T16:21:01.641Z,100752.40
2022-12-25T16:26:11.560Z,100736.00
2022-12-25T16:31:21.172Z,100746.60
2022-12-25T16:36:30.836Z,100759.00
2022-12-25T16:41:40.592Z,100764.00
2022-12-25T16:46:50.894Z,100748.80
2022-12-25T16:52:00.610Z,100755.20
2022-12-25T16:57:10.426Z,100758.60
2022-12-25T17:02:23.248Z,100741.80
2022-12-25T17:07:33.168Z,100743.80
2022-12-25T17:12:46.031Z,100738.00
2022-12-25T17:17:55.958Z,100743.20
2022-12-25T17:23:05.822Z,100741.60
2022-12-25T17:28:15.698Z,100731.80
2022-12-25T17:33:25.647Z,100736.20
2022-12-25T17:38:36.116Z,100729.80
2022-12-25T17:43:46.024Z,100721.40
2022-12-25T17:48:58.556Z,100724.60
2022-12-25T17:54:08.206Z,100722.60
2022-12-25T17:59:19.420Z,100733.40
2022-12-25T18:04:29.246Z,100722.40
2022-12-25T18:09:39.560Z,100712.60
2022-12-25T18:14:49.095Z,100716.80
2022-12-25T18:19:59.696Z,100715.00
2022-12-25T18:25:11.008Z,100707.60
2022-12-25T18:30:21.470Z,100702.80
2022-12-25T18:35:31.388Z,100692.80
2022-12-25T18:40:46.492Z,100695.20
2022-12-25T18:46:04.003Z,100698.20
2022-12-25T18:51:16.852Z,100698.40
2022-12-25T18:56:26.540Z,100691.40
2022-12-25T19:01:36.520Z,100697.00
2022-12-25T19:06:46.702Z,100687.40
2022-12-25T19:11:57.260Z,100674.60
2022-12-25T19:17:07.103Z,100669.40
2022-12-25T19:22:17.055Z,100669.20
2022-12-25T19:27:26.739Z,100656.20
2022-12-25T19:32:36.371Z,100648.80
2022-12-25T19:37:46.001Z,100648.80
2022-12-25T19:42:55.497Z,100636.80
2022-12-25T19:48:05.569Z,100632.40
2022-12-25T19:53:17.239Z,100622.40
2022-12-25T19:58:27.776Z,100609.20
2022-12-25T20:03:45.896Z,100606.40
2022-12-25T20:08:59.270Z,100624.60
2022-12-25T20:14:11.933Z,100627.80
2022-12-25T20:19:21.590Z,100628.40
2022-12-25T20:24:31.205Z,100628.20
2022-12-25T20:29:41.056Z,100626.40
2022-12-25T20:34:50.957Z,100623.80
2022-12-25T20:40:01.308Z,100620.00
2022-12-25T20:45:12.806Z,100629.00
2022-12-25T20:50:22.839Z,100624.60
2022-12-25T20:55:32.559Z,100616.80
2022-12-25T21:00:45.897Z,100609.20
2022-12-25T21:05:57.901Z,100600.80
2022-12-25T21:11:08.757Z,100580.20
2022-12-25T21:16:22.965Z,100572.80
2022-12-25T21:21:32.898Z,100571.60
2022-12-25T21:26:47.842Z,100568.80
2022-12-25T21:32:15.804Z,100556.40
2022-12-25T21:37:25.534Z,100545.40
2022-12-25T21:42:35.169Z,100533.60
2022-12-25T21:48:02.046Z,100523.60
2022-12-25T21:53:18.643Z,100535.60
2022-12-25T21:58:28.337Z,100526.00
2022-12-25T22:03:38.324Z,100522.60
2022-12-25T22:08:48.078Z,100522.20
2022-12-25T22:14:15.552Z,100513.00
2022-12-25T22:19:45.429Z,100492.00
2022-12-25T22:24:57.073Z,100489.60
2022-12-25T22:30:10.490Z,100475.00
2022-12-25T22:35:21.110Z,100464.60
2022-12-25T22:40:30.905Z,100439.40
2022-12-25T22:45:40.373Z,100427.00
2022-12-25T22:50:49.901Z,100423.20
2022-12-25T22:55:59.741Z,100415.80
2022-12-25T23:01:14.222Z,100403.60
2022-12-25T23:06:24.198Z,100393.20
2022-12-25T23:11:34.106Z,100394.40
2022-12-25T23:16:43.877Z,100393.20
2022-12-25T23:22:11.112Z,100372.40
2022-12-25T23:27:20.892Z,100360.80
2022-12-25T23:32:31.103Z,100344.20
2022-12-25T23:37:40.860Z,100363.00
2022-12-25T23:42:50.462Z,100375.80
2022-12-25T23:48:00.085Z,100366.40
2022-12-25T23:53:09.618Z,100364.80
2022-12-25T23:58:19.390Z,100369.60
